Time;durP1;ratioP1;P1;durP2;ratioP2;P2;SDS_P1;SDS_P2;PMS_P1;PMS_P2;Temp;Humidity;BMP_temperature;BMP_pressure;BME280_temperature;BME280_humidity;BME280_pressure;Samples;Min_cycle;Max_cycle;Signal;HPM_P1;HPM_P2
2021/01/07 00:00:49;;;;;;;23.50;15.47;;;;;;;;;;5013351;28;20096;-68
2021/01/07 00:03:15;;;;;;;23.10;15.77;;;;;;;;;;5013403;28;20482;-68
2021/01/07 00:05:41;;;;;;;20.90;13.83;;;;;;;;;;5013110;28;20022;-68
2021/01/07 00:08:07;;;;;;;21.40;13.63;;;;;;;;;;5013111;28;20057;-68
2021/01/07 00:10:33;;;;;;;19.33;14.20;;;;;;;;;;5013457;28;20061;-68
2021/01/07 00:12:59;;;;;;;16.47;12.90;;;;;;;;;;5013325;28;20026;-68
2021/01/07 00:15:25;;;;;;;18.17;13.20;;;;;;;;;;5013493;28;20034;-68
2021/01/07 00:17:51;;;;;;;16.33;13.37;;;;;;;;;;5012843;28;20053;-68
2021/01/07 00:20:17;;;;;;;17.10;13.60;;;;;;;;;;5013007;28;20025;-68
2021/01/07 00:22:43;;;;;;;20.83;13.67;;;;;;;;;;5013492;28;20026;-68
2021/01/07 00:25:10;;;;;;;16.97;14.27;;;;;;;;;;5013219;28;20030;-68
2021/01/07 00:27:36;;;;;;;16.93;12.97;;;;;;;;;;5013127;28;20042;-68
2021/01/07 00:30:03;;;;;;;23.10;13.67;;;;;;;;;;5013137;28;20029;-68
2021/01/07 00:32:29;;;;;;;17.83;12.93;;;;;;;;;;5012980;28;20467;-68
2021/01/07 00:34:55;;;;;;;17.77;13.47;;;;;;;;;;5013240;28;20030;-68
2021/01/07 00:37:21;;;;;;;22.87;14.67;;;;;;;;;;5013280;28;20030;-68
2021/01/07 00:39:47;;;;;;;19.00;13.30;;;;;;;;;;5013123;28;20033;-67
2021/01/07 00:42:16;;;;;;;20.30;13.83;;;;;;;;;;5013075;28;20045;-68
2021/01/07 00:44:42;;;;;;;22.67;14.43;;;;;;;;;;5013083;28;20053;-68
2021/01/07 00:47:08;;;;;;;21.00;13.57;;;;;;;;;;5012871;28;20491;-68
2021/01/07 00:49:34;;;;;;;23.10;12.93;;;;;;;;;;5013091;28;20029;-68
2021/01/07 00:52:00;;;;;;;15.27;11.77;;;;;;;;;;5012894;28;20059;-68
2021/01/07 00:54:27;;;;;;;17.97;12.77;;;;;;;;;;5014677;28;20029;-67
2021/01/07 00:56:53;;;;;;;18.30;12.23;;;;;;;;;;5016503;28;20117;-68
2021/01/07 00:59:19;;;;;;;17.80;12.30;;;;;;;;;;5016764;28;20049;-68
2021/01/07 01:01:49;;;;;;;19.60;12.83;;;;;;;;;;5016357;28;20037;-67
2021/01/07 01:04:15;;;;;;;17.97;12.93;;;;;;;;;;5016480;28;20504;-67
2021/01/07 01:06:42;;;;;;;18.73;14.30;;;;;;;;;;5016143;28;20046;-68
2021/01/07 01:09:08;;;;;;;17.70;13.37;;;;;;;;;;5016699;28;20060;-68
2021/01/07 01:11:48;;;;;;;17.70;12.87;;;;;;;;;;5016409;28;20080;-68
2021/01/07 01:14:15;;;;;;;18.80;13.43;;;;;;;;;;5016169;28;20026;-67
2021/01/07 01:16:42;;;;;;;19.07;13.53;;;;;;;;;;5016065;28;20161;-68
2021/01/07 01:19:08;;;;;;;15.27;12.40;;;;;;;;;;5016035;28;20044;-68
2021/01/07 01:21:34;;;;;;;17.80;12.47;;;;;;;;;;5016206;28;20474;-68
2021/01/07 01:24:00;;;;;;;17.57;12.53;;;;;;;;;;5016058;28;20022;-68
2021/01/07 01:26:26;;;;;;;14.60;11.27;;;;;;;;;;5015854;28;20092;-68
2021/01/07 01:28:52;;;;;;;19.37;12.27;;;;;;;;;;5016010;28;20072;-68
2021/01/07 01:31:18;;;;;;;18.87;11.53;;;;;;;;;;5015940;28;20024;-68
2021/01/07 01:33:44;;;;;;;15.40;11.47;;;;;;;;;;5016113;28;20034;-68
2021/01/07 01:36:10;;;;;;;14.00;11.27;;;;;;;;;;5015969;28;20034;-68
2021/01/07 01:38:36;;;;;;;13.80;10.80;;;;;;;;;;5015566;28;20449;-68
2021/01/07 01:41:03;;;;;;;13.83;11.17;;;;;;;;;;5015981;28;20036;-68
2021/01/07 01:43:30;;;;;;;15.40;11.13;;;;;;;;;;5015771;28;20030;-68
2021/01/07 01:45:56;;;;;;;15.20;11.07;;;;;;;;;;5015595;28;20026;-68
2021/01/07 01:48:23;;;;;;;21.73;11.50;;;;;;;;;;5015789;28;20037;-68
2021/01/07 01:50:49;;;;;;;15.73;10.83;;;;;;;;;;5015445;28;20100;-68
2021/01/07 01:53:15;;;;;;;15.73;11.50;;;;;;;;;;5015651;28;20025;-68
2021/01/07 01:55:42;;;;;;;16.10;11.97;;;;;;;;;;5015316;28;20026;-68
2021/01/07 01:58:08;;;;;;;15.83;11.57;;;;;;;;;;5013579;28;20469;-68
2021/01/07 02:00:35;;;;;;;17.03;12.43;;;;;;;;;;5012496;28;20089;-68
2021/01/07 02:03:01;;;;;;;14.73;11.70;;;;;;;;;;5012479;28;20034;-68
2021/01/07 02:05:27;;;;;;;15.37;11.40;;;;;;;;;;5013289;28;20026;-68
2021/01/07 02:07:53;;;;;;;14.23;10.93;;;;;;;;;;5015120;28;20541;-68
2021/01/07 02:10:20;;;;;;;16.70;11.17;;;;;;;;;;5015159;28;20157;-68
2021/01/07 02:12:47;;;;;;;14.03;10.77;;;;;;;;;;5015031;28;20033;-67
2021/01/07 02:15:14;;;;;;;15.17;10.67;;;;;;;;;;5014866;28;20032;-68
2021/01/07 02:17:40;;;;;;;17.20;11.23;;;;;;;;;;5014811;28;20050;-68
2021/01/07 02:20:07;;;;;;;15.40;10.83;;;;;;;;;;5014922;28;20364;-68
2021/01/07 02:22:33;;;;;;;15.17;11.17;;;;;;;;;;5015175;28;20026;-68
2021/01/07 02:24:59;;;;;;;14.47;10.43;;;;;;;;;;5014950;28;20438;-68
2021/01/07 02:27:25;;;;;;;18.43;10.50;;;;;;;;;;5014715;28;20048;-67
2021/01/07 02:29:52;;;;;;;12.63;9.17;;;;;;;;;;5014810;28;20052;-68
2021/01/07 02:32:18;;;;;;;12.60;8.97;;;;;;;;;;5014794;28;20034;-68
2021/01/07 02:34:44;;;;;;;12.80;9.40;;;;;;;;;;5014662;28;20029;-68
2021/01/07 02:37:10;;;;;;;11.13;8.23;;;;;;;;;;5014393;28;20030;-68
2021/01/07 02:39:36;;;;;;;11.10;8.00;;;;;;;;;;5014451;28;20053;-67
2021/01/07 02:42:02;;;;;;;11.13;8.10;;;;;;;;;;5014457;28;20062;-68
2021/01/07 02:44:29;;;;;;;9.57;7.30;;;;;;;;;;5014031;28;20044;-67
2021/01/07 02:46:55;;;;;;;9.67;7.13;;;;;;;;;;5014098;28;20109;-68
2021/01/07 02:49:21;;;;;;;10.43;7.63;;;;;;;;;;5014398;28;20091;-68
2021/01/07 02:51:47;;;;;;;7.97;6.37;;;;;;;;;;5013994;28;20022;-68
2021/01/07 02:54:13;;;;;;;8.40;6.30;;;;;;;;;;5014246;28;20049;-68
2021/01/07 02:56:39;;;;;;;11.00;6.63;;;;;;;;;;5014187;28;20065;-68
2021/01/07 02:59:05;;;;;;;9.73;7.30;;;;;;;;;;5013969;28;20498;-68
2021/01/07 03:01:32;;;;;;;10.47;7.23;;;;;;;;;;5014380;28;20025;-68
2021/01/07 03:03:58;;;;;;;9.67;7.33;;;;;;;;;;5014031;28;20105;-68
2021/01/07 03:06:24;;;;;;;9.67;7.27;;;;;;;;;;5012548;28;20521;-68
2021/01/07 03:08:51;;;;;;;9.47;7.40;;;;;;;;;;5014200;28;20033;-68
2021/01/07 03:11:17;;;;;;;11.50;7.87;;;;;;;;;;5014227;28;20121;-68
2021/01/07 03:13:43;;;;;;;9.67;7.77;;;;;;;;;;5014094;28;20061;-67
2021/01/07 03:16:09;;;;;;;10.40;7.60;;;;;;;;;;5013817;28;20030;-68
2021/01/07 03:18:35;;;;;;;9.37;8.07;;;;;;;;;;5013409;28;20092;-67
2021/01/07 03:21:01;;;;;;;8.23;6.90;;;;;;;;;;5013791;28;20026;-67
2021/01/07 03:23:27;;;;;;;12.97;7.70;;;;;;;;;;5013669;28;20068;-68
2021/01/07 03:25:53;;;;;;;9.80;7.00;;;;;;;;;;5013784;28;20037;-68
2021/01/07 03:28:19;;;;;;;9.70;7.53;;;;;;;;;;5013808;28;20100;-68
2021/01/07 03:30:45;;;;;;;8.83;7.40;;;;;;;;;;5013652;28;20022;-68
2021/01/07 03:33:11;;;;;;;9.60;7.90;;;;;;;;;;5013960;28;20086;-68
2021/01/07 03:35:37;;;;;;;10.43;7.43;;;;;;;;;;5013961;28;20117;-68
2021/01/07 03:38:03;;;;;;;9.83;7.83;;;;;;;;;;5013511;28;20060;-67
2021/01/07 03:40:29;;;;;;;13.07;7.93;;;;;;;;;;5013758;28;20038;-67
2021/01/07 03:42:55;;;;;;;8.80;6.70;;;;;;;;;;5013502;28;20426;-68
2021/01/07 03:45:21;;;;;;;9.13;7.47;;;;;;;;;;5013690;28;20475;-68
2021/01/07 03:47:47;;;;;;;11.00;6.40;;;;;;;;;;5013236;28;20045;-68
2021/01/07 03:50:14;;;;;;;9.80;6.83;;;;;;;;;;5013484;28;20021;-68
2021/01/07 03:52:40;;;;;;;9.57;6.83;;;;;;;;;;5013388;28;20040;-68
2021/01/07 03:55:06;;;;;;;9.20;5.90;;;;;;;;;;5013327;28;20018;-68
2021/01/07 03:57:32;;;;;;;8.60;5.80;;;;;;;;;;5013344;28;20022;-68
2021/01/07 03:59:58;;;;;;;7.87;5.93;;;;;;;;;;5013355;28;20026;-68
2021/01/07 04:02:25;;;;;;;7.23;5.37;;;;;;;;;;5013089;28;20417;-68
2021/01/07 04:04:51;;;;;;;7.10;5.40;;;;;;;;;;5013436;28;20022;-68
2021/01/07 04:07:17;;;;;;;7.73;5.80;;;;;;;;;;5013122;28;20068;-68
2021/01/07 04:09:43;;;;;;;6.60;5.53;;;;;;;;;;5013380;28;20046;-67
2021/01/07 04:12:09;;;;;;;9.80;5.40;;;;;;;;;;5013095;28;20086;-68
2021/01/07 04:14:35;;;;;;;7.20;5.27;;;;;;;;;;5013186;28;20032;-68
2021/01/07 04:17:02;;;;;;;6.93;5.00;;;;;;;;;;5012922;28;20105;-68
2021/01/07 04:19:28;;;;;;;8.33;5.70;;;;;;;;;;5013162;28;20034;-68
2021/01/07 04:21:54;;;;;;;6.93;5.10;;;;;;;;;;5013290;28;20105;-68
2021/01/07 04:24:20;;;;;;;7.33;5.23;;;;;;;;;;5013204;28;20022;-68
2021/01/07 04:26:46;;;;;;;7.97;5.40;;;;;;;;;;5012957;28;20037;-68
2021/01/07 04:29:12;;;;;;;8.27;5.10;;;;;;;;;;5014556;28;20048;-68
2021/01/07 04:31:39;;;;;;;6.90;5.17;;;;;;;;;;5017282;28;20172;-68
2021/01/07 04:34:05;;;;;;;7.17;5.10;;;;;;;;;;5016922;28;20108;-68
2021/01/07 04:36:31;;;;;;;7.00;5.27;;;;;;;;;;5016787;28;20022;-68
2021/01/07 04:38:57;;;;;;;8.57;6.00;;;;;;;;;;5016768;28;20014;-68
2021/01/07 04:41:23;;;;;;;10.13;7.17;;;;;;;;;;5016855;28;20018;-68
2021/01/07 04:44:02;;;;;;;12.57;8.30;;;;;;;;;;5016929;28;20057;-68
2021/01/07 04:46:28;;;;;;;12.03;7.97;;;;;;;;;;5016734;28;20053;-68
2021/01/07 04:48:54;;;;;;;13.27;8.33;;;;;;;;;;5016828;28;20129;-68
2021/01/07 04:51:20;;;;;;;11.67;7.67;;;;;;;;;;5016550;28;20052;-67
2021/01/07 04:53:48;;;;;;;11.77;7.50;;;;;;;;;;5016625;28;20033;-68
2021/01/07 04:56:14;;;;;;;12.30;7.90;;;;;;;;;;5016731;28;20529;-67
2021/01/07 04:58:40;;;;;;;10.63;7.23;;;;;;;;;;5016642;28;20026;-68
2021/01/07 05:01:06;;;;;;;11.23;7.80;;;;;;;;;;5016862;28;20088;-68
2021/01/07 05:03:33;;;;;;;12.60;8.00;;;;;;;;;;5016480;28;20083;-68
2021/01/07 05:05:59;;;;;;;12.47;7.80;;;;;;;;;;5016717;28;20026;-68
2021/01/07 05:08:26;;;;;;;17.17;8.77;;;;;;;;;;5016695;28;20038;-68
2021/01/07 05:10:52;;;;;;;17.63;9.83;;;;;;;;;;5016304;28;20030;-68
2021/01/07 05:13:19;;;;;;;15.03;8.93;;;;;;;;;;5016229;28;20103;-68
2021/01/07 05:15:45;;;;;;;12.27;8.37;;;;;;;;;;5016387;28;20076;-67
2021/01/07 05:18:11;;;;;;;14.27;9.50;;;;;;;;;;5016153;28;20053;-68
2021/01/07 05:20:38;;;;;;;13.23;8.63;;;;;;;;;;5016373;28;20030;-68
2021/01/07 05:23:04;;;;;;;12.17;7.87;;;;;;;;;;5015862;28;20045;-68
2021/01/07 05:25:30;;;;;;;12.80;8.87;;;;;;;;;;5016313;28;20045;-68
2021/01/07 05:28:00;;;;;;;11.47;7.70;;;;;;;;;;5015837;28;20077;-68
2021/01/07 05:30:29;;;;;;;13.03;8.40;;;;;;;;;;5016144;28;20026;-68
2021/01/07 05:33:03;;;;;;;15.57;8.50;;;;;;;;;;5016351;28;20394;-68
2021/01/07 05:35:29;;;;;;;12.83;8.10;;;;;;;;;;5015781;28;20088;-67
2021/01/07 05:37:57;;;;;;;13.80;8.63;;;;;;;;;;5015749;28;20026;-68
2021/01/07 05:40:23;;;;;;;13.83;8.10;;;;;;;;;;5015769;28;20030;-68
2021/01/07 05:42:49;;;;;;;11.50;7.43;;;;;;;;;;5015880;28;20034;-68
2021/01/07 05:45:16;;;;;;;16.43;8.30;;;;;;;;;;5016172;28;20065;-68
2021/01/07 05:47:49;;;;;;;16.80;9.77;;;;;;;;;;5015130;28;20493;-68
2021/01/07 05:50:15;;;;;;;23.92;10.25;;;;;;;;;;5015914;28;20053;-68
2021/01/07 05:52:42;;;;;;;18.20;9.97;;;;;;;;;;5015678;28;20033;-68
2021/01/07 05:55:09;;;;;;;16.07;9.77;;;;;;;;;;5016067;28;20474;-67
2021/01/07 05:57:37;;;;;;;17.43;10.13;;;;;;;;;;5015161;28;20057;-67
2021/01/07 06:00:04;;;;;;;17.30;9.10;;;;;;;;;;5015226;28;20450;-68
2021/01/07 06:02:32;;;;;;;13.33;8.57;;;;;;;;;;5015507;28;20050;-68
2021/01/07 06:04:58;;;;;;;14.47;9.63;;;;;;;;;;5015653;28;20022;-68
2021/01/07 06:07:26;;;;;;;14.77;9.40;;;;;;;;;;5015112;28;20092;-69
2021/01/07 06:09:54;;;;;;;14.67;8.97;;;;;;;;;;5015000;28;20028;-68
2021/01/07 06:12:20;;;;;;;13.77;9.10;;;;;;;;;;5015114;28;20025;-67
2021/01/07 06:14:46;;;;;;;12.47;8.47;;;;;;;;;;5015248;28;20403;-67
2021/01/07 06:17:13;;;;;;;14.53;8.70;;;;;;;;;;5014775;28;20074;-68
2021/01/07 06:19:40;;;;;;;16.20;9.13;;;;;;;;;;5015275;28;20065;-68
2021/01/07 06:22:16;;;;;;;15.67;9.40;;;;;;;;;;5015257;28;20109;-68
2021/01/07 06:24:43;;;;;;;17.23;9.13;;;;;;;;;;5014924;28;20544;-67
2021/01/07 06:27:25;;;;;;;13.30;8.77;;;;;;;;;;5014729;28;20030;-68
2021/01/07 06:29:57;;;;;;;15.43;8.83;;;;;;;;;;5014904;28;20026;-67
2021/01/07 06:32:23;;;;;;;15.33;8.93;;;;;;;;;;5015099;28;20076;-68
2021/01/07 06:34:51;;;;;;;13.63;8.63;;;;;;;;;;5014969;28;20109;-68
2021/01/07 06:37:36;;;;;;;16.33;8.80;;;;;;;;;;5014714;28;20471;-68
2021/01/07 06:40:03;;;;;;;14.17;7.90;;;;;;;;;;5016115;28;20034;-68
2021/01/07 06:42:29;;;;;;;14.67;10.90;;;;;;;;;;5014921;28;20383;-69
2021/01/07 06:44:59;;;;;;;13.60;9.07;;;;;;;;;;5014884;28;20101;-67
2021/01/07 06:47:25;;;;;;;12.03;8.10;;;;;;;;;;5014224;28;20037;-68
2021/01/07 06:49:52;;;;;;;14.80;8.37;;;;;;;;;;5014883;28;20053;-68
2021/01/07 06:52:23;;;;;;;15.57;8.60;;;;;;;;;;5014092;28;20036;-67
2021/01/07 06:54:49;;;;;;;13.13;8.43;;;;;;;;;;5014429;28;20108;-67
2021/01/07 06:57:16;;;;;;;14.80;9.83;;;;;;;;;;5014565;28;20101;-67
2021/01/07 06:59:56;;;;;;;15.77;10.47;;;;;;;;;;5014527;28;20026;-68
2021/01/07 07:02:23;;;;;;;18.13;11.17;;;;;;;;;;5014228;28;20030;-68
2021/01/07 07:04:50;;;;;;;17.13;11.00;;;;;;;;;;5014465;28;20033;-68
2021/01/07 07:07:16;;;;;;;17.87;10.30;;;;;;;;;;5014028;28;20042;-66
2021/01/07 07:09:42;;;;;;;20.73;11.27;;;;;;;;;;5013980;28;20029;-65
2021/01/07 07:12:08;;;;;;;21.17;10.40;;;;;;;;;;5012338;28;20026;-65
2021/01/07 07:14:34;;;;;;;20.03;10.30;;;;;;;;;;5012969;28;20014;-65
2021/01/07 07:17:08;;;;;;;14.80;9.70;;;;;;;;;;5012538;28;20118;-65
2021/01/07 07:19:36;;;;;;;15.70;9.80;;;;;;;;;;5013591;28;20029;-65
2021/01/07 07:22:03;;;;;;;16.07;10.27;;;;;;;;;;5013158;28;20048;-65
2021/01/07 07:24:42;;;;;;;17.63;11.07;;;;;;;;;;5013575;28;20461;-65
2021/01/07 07:27:09;;;;;;;19.17;10.60;;;;;;;;;;5013505;28;20034;-66
2021/01/07 07:29:36;;;;;;;16.30;10.57;;;;;;;;;;5013561;28;20129;-64
2021/01/07 07:32:19;;;;;;;18.87;11.27;;;;;;;;;;5013276;28;20030;-65
2021/01/07 07:34:48;;;;;;;14.03;10.27;;;;;;;;;;5012296;28;20033;-65
2021/01/07 07:37:24;;;;;;;17.70;11.57;;;;;;;;;;5010603;28;20445;-65
2021/01/07 07:39:51;;;;;;;14.97;11.07;;;;;;;;;;5010258;28;20061;-66
2021/01/07 07:42:17;;;;;;;17.40;10.93;;;;;;;;;;5011968;28;20116;-66
2021/01/07 07:44:44;;;;;;;16.47;11.93;;;;;;;;;;5012770;28;20542;-66
2021/01/07 07:47:10;;;;;;;19.93;13.33;;;;;;;;;;5012818;28;20470;-65
2021/01/07 07:49:36;;;;;;;20.90;11.70;;;;;;;;;;5012461;28;20025;-66
2021/01/07 07:52:02;;;;;;;18.77;11.10;;;;;;;;;;5011986;28;20018;-66
2021/01/07 07:54:28;;;;;;;19.77;10.30;;;;;;;;;;5011162;28;20471;-65
2021/01/07 07:56:58;;;;;;;14.73;10.30;;;;;;;;;;5011335;28;20213;-64
2021/01/07 07:59:24;;;;;;;17.70;11.03;;;;;;;;;;5011440;28;20030;-67
2021/01/07 08:01:52;;;;;;;17.10;10.57;;;;;;;;;;5009681;28;20123;-66
2021/01/07 08:04:19;;;;;;;16.03;10.97;;;;;;;;;;5008711;28;20030;-65
2021/01/07 08:06:46;;;;;;;19.43;11.53;;;;;;;;;;5012896;28;20125;-65
2021/01/07 08:09:13;;;;;;;18.70;11.77;;;;;;;;;;5011886;28;20398;-65
2021/01/07 08:11:51;;;;;;;19.23;11.13;;;;;;;;;;5013342;28;20029;-65
2021/01/07 08:14:18;;;;;;;18.40;11.67;;;;;;;;;;5013166;28;20030;-65
2021/01/07 08:16:45;;;;;;;18.23;10.97;;;;;;;;;;5012792;28;20030;-65
2021/01/07 08:19:15;;;;;;;15.90;10.93;;;;;;;;;;5013167;28;20038;-65
2021/01/07 08:21:45;;;;;;;16.93;10.53;;;;;;;;;;5013366;28;20026;-64
2021/01/07 08:24:11;;;;;;;18.23;11.47;;;;;;;;;;5012994;28;20086;-65
2021/01/07 08:26:38;;;;;;;19.33;10.87;;;;;;;;;;5013261;28;20036;-65
2021/01/07 08:29:07;;;;;;;16.43;11.10;;;;;;;;;;5013409;28;20435;-64
2021/01/07 08:31:33;;;;;;;13.53;9.80;;;;;;;;;;5013050;28;20445;-65
2021/01/07 08:34:00;;;;;;;15.43;10.17;;;;;;;;;;5013131;28;20387;-65
2021/01/07 08:36:30;;;;;;;16.37;10.43;;;;;;;;;;5012939;28;20116;-64
2021/01/07 08:38:56;;;;;;;12.50;8.93;;;;;;;;;;5010995;28;20029;-65
2021/01/07 08:41:22;;;;;;;13.33;8.70;;;;;;;;;;5012575;28;20109;-65
2021/01/07 08:43:53;;;;;;;10.93;7.83;;;;;;;;;;5020506;28;20105;-66
2021/01/07 08:46:26;;;;;;;11.23;8.10;;;;;;;;;;5031784;28;20079;-65
2021/01/07 08:49:01;;;;;;;14.27;8.40;;;;;;;;;;5032002;28;20088;-65
2021/01/07 08:51:27;;;;;;;11.60;7.67;;;;;;;;;;5032110;28;20091;-65
2021/01/07 08:53:54;;;;;;;11.77;7.47;;;;;;;;;;5031800;28;20064;-65
2021/01/07 08:56:34;;;;;;;12.53;8.17;;;;;;;;;;5032036;28;20030;-64
2021/01/07 08:59:16;;;;;;;12.20;7.60;;;;;;;;;;5032230;28;20041;-65
2021/01/07 09:01:42;;;;;;;14.33;7.30;;;;;;;;;;5032168;28;20092;-65
2021/01/07 09:04:27;;;;;;;10.27;7.20;;;;;;;;;;5032550;28;20355;-65
2021/01/07 09:07:12;;;;;;;11.27;8.17;;;;;;;;;;5031937;28;20037;-66
2021/01/07 09:09:39;;;;;;;16.57;7.60;;;;;;;;;;5031389;28;20018;-65
2021/01/07 09:12:12;;;;;;;12.43;8.00;;;;;;;;;;5032174;28;20033;-65
2021/01/07 09:14:44;;;;;;;12.30;8.50;;;;;;;;;;5032297;28;20374;-65
2021/01/07 09:17:11;;;;;;;13.52;8.43;;;;;;;;;;5035226;28;20096;-65
2021/01/07 09:19:37;;;;;;;10.70;8.60;;;;;;;;;;5035193;28;20363;-65
2021/01/07 09:22:03;;;;;;;11.50;7.87;;;;;;;;;;5034887;28;20055;-65
2021/01/07 09:24:33;;;;;;;17.83;8.47;;;;;;;;;;5035292;28;20025;-66
2021/01/07 09:27:09;;;;;;;13.97;8.00;;;;;;;;;;5035187;28;20029;-66
2021/01/07 09:29:35;;;;;;;13.07;7.80;;;;;;;;;;5034849;28;20040;-67
2021/01/07 09:32:01;;;;;;;11.37;8.13;;;;;;;;;;5034631;28;20075;-64
2021/01/07 09:34:27;;;;;;;12.77;8.23;;;;;;;;;;5035124;28;20485;-65
2021/01/07 09:36:53;;;;;;;11.90;8.83;;;;;;;;;;5034981;28;20130;-64
2021/01/07 09:39:19;;;;;;;12.07;8.50;;;;;;;;;;5034832;28;20072;-65
2021/01/07 09:41:46;;;;;;;14.60;9.87;;;;;;;;;;5034530;28;20030;-66
2021/01/07 09:44:12;;;;;;;13.63;8.97;;;;;;;;;;5034795;28;20502;-65
2021/01/07 09:46:38;;;;;;;11.80;8.90;;;;;;;;;;5034416;28;20450;-66
2021/01/07 09:49:04;;;;;;;14.07;9.77;;;;;;;;;;5034492;28;20027;-65
2021/01/07 09:51:32;;;;;;;12.77;9.80;;;;;;;;;;5034651;28;20030;-64
2021/01/07 09:53:58;;;;;;;13.80;10.23;;;;;;;;;;5034211;28;20382;-65
2021/01/07 09:56:24;;;;;;;15.23;9.30;;;;;;;;;;5033981;28;20478;-65
2021/01/07 09:58:50;;;;;;;11.27;8.37;;;;;;;;;;5034240;28;20029;-65
2021/01/07 10:01:19;;;;;;;12.10;8.37;;;;;;;;;;5034146;28;20028;-65
2021/01/07 10:03:45;;;;;;;11.23;9.00;;;;;;;;;;5032080;28;20029;-64
2021/01/07 10:06:11;;;;;;;12.67;8.83;;;;;;;;;;5032264;28;20028;-64
2021/01/07 10:08:37;;;;;;;12.77;9.10;;;;;;;;;;5033697;28;20029;-65
2021/01/07 10:11:03;;;;;;;12.20;8.27;;;;;;;;;;5033982;28;20085;-64
2021/01/07 10:13:29;;;;;;;12.57;9.43;;;;;;;;;;5035017;28;20029;-64
2021/01/07 10:15:55;;;;;;;12.37;8.93;;;;;;;;;;5034942;28;20484;-65
2021/01/07 10:18:21;;;;;;;14.27;10.27;;;;;;;;;;5034943;28;20120;-64
2021/01/07 10:20:47;;;;;;;16.63;9.53;;;;;;;;;;5035274;28;20087;-64
2021/01/07 10:23:14;;;;;;;13.77;8.80;;;;;;;;;;5035008;28;20116;-65
2021/01/07 10:25:41;;;;;;;16.13;10.10;;;;;;;;;;5034626;28;20033;-65
2021/01/07 10:28:09;;;;;;;16.10;9.97;;;;;;;;;;5034081;28;20041;-64
2021/01/07 10:30:35;;;;;;;14.87;10.27;;;;;;;;;;5034887;28;20489;-65
2021/01/07 10:33:02;;;;;;;17.97;10.20;;;;;;;;;;5034644;28;20105;-64
2021/01/07 10:35:28;;;;;;;12.13;10.27;;;;;;;;;;5034619;28;20051;-64
2021/01/07 10:37:59;;;;;;;14.57;9.03;;;;;;;;;;5034580;28;20025;-64
2021/01/07 10:40:31;;;;;;;12.10;9.13;;;;;;;;;;5034492;28;20017;-64
2021/01/07 10:42:59;;;;;;;13.52;10.00;;;;;;;;;;5034581;28;20022;-64
2021/01/07 10:45:25;;;;;;;15.20;9.67;;;;;;;;;;5034473;28;20057;-64
2021/01/07 10:47:54;;;;;;;16.20;10.80;;;;;;;;;;5034382;28;20037;-65
2021/01/07 10:50:24;;;;;;;17.07;11.80;;;;;;;;;;5034429;28;20036;-64
2021/01/07 10:53:02;;;;;;;17.30;11.50;;;;;;;;;;5034257;28;20534;-65
2021/01/07 10:55:30;;;;;;;15.33;10.93;;;;;;;;;;5034374;28;20025;-65
2021/01/07 10:58:04;;;;;;;14.70;10.17;;;;;;;;;;5034430;28;20061;-64
2021/01/07 11:00:30;;;;;;;14.20;10.10;;;;;;;;;;5034275;28;20087;-65
2021/01/07 11:03:18;;;;;;;18.07;11.53;;;;;;;;;;5034194;28;20113;-64
2021/01/07 11:05:45;;;;;;;17.60;11.43;;;;;;;;;;5034104;28;20513;-64
2021/01/07 11:08:21;;;;;;;17.00;10.23;;;;;;;;;;5033995;28;20432;-64
2021/01/07 11:10:51;;;;;;;17.67;9.17;;;;;;;;;;5034346;28;20025;-64
2021/01/07 11:13:21;;;;;;;12.97;9.73;;;;;;;;;;5034283;28;20466;-65
2021/01/07 11:15:47;;;;;;;14.83;10.10;;;;;;;;;;5033751;28;20496;-64
2021/01/07 11:18:22;;;;;;;11.33;7.97;;;;;;;;;;5033522;28;20482;-64
2021/01/07 11:20:54;;;;;;;13.10;9.03;;;;;;;;;;5034060;28;20385;-64
2021/01/07 11:23:20;;;;;;;10.67;8.10;;;;;;;;;;5033770;28;20359;-64
2021/01/07 11:25:49;;;;;;;13.13;8.73;;;;;;;;;;5033740;28;20076;-64
2021/01/07 11:28:19;;;;;;;13.63;8.30;;;;;;;;;;5033892;28;20037;-64
2021/01/07 11:30:45;;;;;;;10.30;6.57;;;;;;;;;;5033388;28;20029;-65
2021/01/07 11:33:12;;;;;;;9.77;6.60;;;;;;;;;;5033328;28;20432;-64
2021/01/07 11:35:38;;;;;;;14.13;7.80;;;;;;;;;;5033113;28;20026;-65
2021/01/07 11:38:05;;;;;;;7.37;5.40;;;;;;;;;;5033107;28;20032;-64
2021/01/07 11:40:37;;;;;;;7.37;5.13;;;;;;;;;;5033425;28;20036;-65
2021/01/07 11:43:09;;;;;;;8.57;5.45;;;;;;;;;;5033630;28;20474;-65
2021/01/07 11:45:36;;;;;;;9.00;5.63;;;;;;;;;;5033283;28;20550;-65
2021/01/07 11:48:05;;;;;;;7.07;5.27;;;;;;;;;;5032813;28;20113;-65
2021/01/07 11:50:36;;;;;;;9.63;5.07;;;;;;;;;;5033485;28;20027;-65
2021/01/07 11:53:02;;;;;;;10.37;5.97;;;;;;;;;;5032964;28;20029;-65
2021/01/07 11:55:29;;;;;;;8.07;6.13;;;;;;;;;;5033541;28;20021;-65
2021/01/07 11:57:56;;;;;;;9.10;5.63;;;;;;;;;;5032879;28;20471;-65
2021/01/07 12:00:22;;;;;;;8.57;5.73;;;;;;;;;;5033304;28;20032;-65
2021/01/07 12:02:49;;;;;;;9.23;5.90;;;;;;;;;;5032966;28;20051;-65
2021/01/07 12:05:20;;;;;;;8.60;5.73;;;;;;;;;;5032928;28;20032;-65
2021/01/07 12:08:18;;;;;;;9.57;6.10;;;;;;;;;;5033027;28;20075;-65
2021/01/07 12:10:46;;;;;;;9.60;5.97;;;;;;;;;;5031444;28;20029;-65
2021/01/07 12:13:26;;;;;;;10.00;5.90;;;;;;;;;;5032703;28;20031;-65
2021/01/07 12:15:53;;;;;;;9.50;5.83;;;;;;;;;;5032688;28;20025;-65
2021/01/07 12:18:20;;;;;;;7.57;5.57;;;;;;;;;;5032739;28;20041;-65
2021/01/07 12:20:46;;;;;;;8.23;5.57;;;;;;;;;;5032925;28;20463;-64
2021/01/07 12:23:13;;;;;;;9.17;5.80;;;;;;;;;;5032830;28;20022;-65
2021/01/07 12:25:41;;;;;;;6.87;5.40;;;;;;;;;;5032761;28;20477;-64
2021/01/07 12:28:07;;;;;;;6.20;4.47;;;;;;;;;;5032765;28;20030;-65
2021/01/07 12:30:38;;;;;;;6.80;4.80;;;;;;;;;;5031501;28;20025;-65
2021/01/07 12:33:04;;;;;;;5.17;3.97;;;;;;;;;;5030076;28;20052;-65
2021/01/07 12:35:34;;;;;;;10.20;6.40;;;;;;;;;;5030000;28;20487;-66
2021/01/07 12:38:19;;;;;;;7.30;4.60;;;;;;;;;;5031587;28;20093;-65
2021/01/07 12:40:48;;;;;;;6.53;4.00;;;;;;;;;;5032780;28;20493;-65
2021/01/07 12:43:17;;;;;;;4.93;3.83;;;;;;;;;;5032513;28;20474;-64
2021/01/07 12:45:44;;;;;;;6.13;4.63;;;;;;;;;;5032088;28;20032;-65
2021/01/07 12:48:10;;;;;;;7.07;4.47;;;;;;;;;;5032271;28;20033;-65
2021/01/07 12:50:36;;;;;;;8.63;4.53;;;;;;;;;;5034593;28;20033;-65
2021/01/07 12:53:02;;;;;;;7.83;4.70;;;;;;;;;;5036229;28;20029;-65
2021/01/07 12:55:32;;;;;;;6.10;4.17;;;;;;;;;;5036114;28;20026;-65
2021/01/07 12:58:17;;;;;;;6.40;3.70;;;;;;;;;;5036046;28;20033;-64
2021/01/07 13:01:02;;;;;;;6.23;4.33;;;;;;;;;;5036093;28;20029;-65
2021/01/07 13:03:49;;;;;;;6.07;3.60;;;;;;;;;;5036373;28;20072;-65
2021/01/07 13:06:19;;;;;;;8.00;4.10;;;;;;;;;;5036196;28;20076;-65
2021/01/07 13:08:46;;;;;;;4.67;3.50;;;;;;;;;;5035646;28;20037;-66
2021/01/07 13:11:14;;;;;;;5.00;3.10;;;;;;;;;;5035936;28;20045;-65
2021/01/07 13:13:45;;;;;;;5.03;3.53;;;;;;;;;;5035880;28;20057;-64
2021/01/07 13:16:11;;;;;;;35.50;12.43;;;;;;;;;;5035705;28;20476;-65
2021/01/07 13:18:38;;;;;;;5.30;3.50;;;;;;;;;;5035757;28;20041;-66
2021/01/07 13:21:05;;;;;;;5.53;3.77;;;;;;;;;;5034889;28;20030;-65
2021/01/07 13:23:32;;;;;;;5.10;3.33;;;;;;;;;;5032794;28;20051;-64
2021/01/07 13:25:58;;;;;;;6.70;4.37;;;;;;;;;;5033226;28;20022;-65
2021/01/07 13:28:24;;;;;;;5.33;3.63;;;;;;;;;;5035579;28;20029;-64
2021/01/07 13:30:50;;;;;;;3.73;2.63;;;;;;;;;;5035909;28;20100;-65
2021/01/07 13:33:17;;;;;;;11.40;3.30;;;;;;;;;;5035651;28;20032;-65
2021/01/07 13:35:45;;;;;;;4.27;2.90;;;;;;;;;;5035607;28;20537;-66
2021/01/07 13:38:11;;;;;;;4.50;3.13;;;;;;;;;;5035579;28;20029;-68
2021/01/07 13:40:39;;;;;;;3.50;2.80;;;;;;;;;;5035497;28;20147;-66
2021/01/07 13:43:08;;;;;;;4.00;2.30;;;;;;;;;;5035536;28;20528;-66
2021/01/07 13:45:35;;;;;;;4.00;2.90;;;;;;;;;;5035365;28;20033;-67
2021/01/07 13:48:02;;;;;;;4.30;3.17;;;;;;;;;;5035204;28;20041;-66
2021/01/07 13:50:31;;;;;;;4.37;2.70;;;;;;;;;;5035292;28;20026;-66
2021/01/07 13:52:59;;;;;;;4.80;3.00;;;;;;;;;;5035371;28;20025;-65
2021/01/07 13:55:26;;;;;;;4.53;3.00;;;;;;;;;;5035378;28;20026;-65
2021/01/07 13:57:53;;;;;;;4.23;3.10;;;;;;;;;;5035233;28;20451;-66
2021/01/07 14:00:19;;;;;;;4.57;3.00;;;;;;;;;;5035309;28;20032;-65
2021/01/07 14:02:46;;;;;;;7.50;3.90;;;;;;;;;;5034878;28;20025;-65
2021/01/07 14:05:15;;;;;;;5.70;3.80;;;;;;;;;;5035040;28;20492;-65
2021/01/07 14:07:44;;;;;;;5.60;3.47;;;;;;;;;;5034525;28;20068;-65
2021/01/07 14:10:11;;;;;;;6.53;3.70;;;;;;;;;;5034228;28;20083;-66
2021/01/07 14:12:39;;;;;;;5.50;4.27;;;;;;;;;;5033325;28;20033;-65
2021/01/07 14:15:05;;;;;;;7.13;4.70;;;;;;;;;;5032799;28;20021;-65
2021/01/07 14:17:31;;;;;;;6.33;4.37;;;;;;;;;;5033334;28;20050;-65
2021/01/07 14:19:57;;;;;;;8.87;4.27;;;;;;;;;;5034446;28;20028;-65
2021/01/07 14:22:23;;;;;;;8.10;4.23;;;;;;;;;;5034740;28;20036;-65
2021/01/07 14:24:50;;;;;;;6.37;4.60;;;;;;;;;;5032685;28;20027;-66
2021/01/07 14:27:18;;;;;;;7.33;4.97;;;;;;;;;;5033138;28;20039;-65
2021/01/07 14:29:45;;;;;;;9.57;5.63;;;;;;;;;;5034356;28;20033;-65
2021/01/07 14:32:11;;;;;;;8.47;4.87;;;;;;;;;;5033098;28;20029;-65